Cord, Arkansas
Current Conditions -  °F | °C
As of 2:56 PM on Saturday 25 Oct 2014 (Local Time) from KM19 Reporting Station
Clear Clear  
Wind Chill: 87°   Ceiling: Unl
Heat Index: 88°   Visibility: 10mi
Dew Point: 63°   Wind: 0mph
Humidity: 45%   Direction: NA
Pressure: 30.02"   Gusts: NA
Location:  35.81°N, 91.34°W
Report Text: KM19 251956Z AUTO 00000KT 10SM CLR 31/17 A3002 RMK AO2 T03050172 SLP162
Loading
Personal Weather Stations






























Interactive Weather Map New forecast layout! Learn more

10-Day Weather Forecast

Advertisements
Track Severe Weather on mobile